This is the latest recevied weather packets stored in our database for station/object VA3XLC. If no packets are shown the sender has not sent any weather packets the latest 10 day(s).
| Time | Temp. | Humidity | Pressure | Rain* | Wind** | Luminosity | Snow |
|---|---|---|---|---|---|---|---|
| 1777914682 | 18.33° C | 55% | 971 hPa | - | - | 896 W/m² | - |
| 1777912860 | 18.33° C | 54% | 971.2 hPa | - | - | 886 W/m² | - |
| 1777912260 | 18.33° C | 54% | 971.3 hPa | - | - | 887 W/m² | - |
| 1777907370 | 16.67° C | 57% | 972.1 hPa | - | - | 750 W/m² | - |
| 1777905247 | 15° C | 59% | 972.2 hPa | - | - | 689 W/m² | - |
| 1777904047 | 14.44° C | 61% | 972.3 hPa | - | - | 629 W/m² | - |
| 1777903746 | 14.44° C | 60% | 972.4 hPa | - | - | 626 W/m² | - |
| 1777903146 | 14.44° C | 61% | 972.5 hPa | - | - | 594 W/m² | - |
| 1777902224 | 13.33° C | 63% | 972.5 hPa | - | - | 552 W/m² | - |
| 1777901002 | 12.78° C | 65% | 972.8 hPa | - | - | 502 W/m² | - |
| 1777897036 | 10.56° C | 70% | 973.2 hPa | - | - | 143 W/m² | - |
| 1777894934 | 9.44° C | 72% | 973 hPa | - | - | 183 W/m² | - |
| 1777892790 | 7.78° C | 75% | 973.2 hPa | - | - | 74 W/m² | - |
| 1777890283 | 7.78° C | 74% | 973.2 hPa | - | - | 8 W/m² | - |
| 1777887580 | 8.33° C | 71% | 973.3 hPa | - | - | 0 W/m² | - |
| 1777886959 | 8.89° C | 71% | 973.3 hPa | - | - | 0 W/m² | - |
| 1777886359 | 8.89° C | 70% | 973.3 hPa | - | - | 0 W/m² | - |
| 1777885437 | 8.89° C | 70% | 973.3 hPa | - | - | 0 W/m² | - |
| 1777880892 | 10° C | 65% | 973.4 hPa | - | - | 0 W/m² | - |
| 1777879670 | 10.56° C | 63% | 973.7 hPa | - | - | 0 W/m² | - |
| 1777879369 | 10.56° C | 63% | 973.8 hPa | - | - | 0 W/m² | - |
| 1777879069 | 10.56° C | 62% | 973.9 hPa | - | - | 0 W/m² | - |
| 1777877847 | 10.56° C | 61% | 974.1 hPa | - | - | 0 W/m² | - |
| 1777876946 | 10.56° C | 60% | 974.2 hPa | - | - | 0 W/m² | - |
| 1777875124 | 11.11° C | 58% | 974.6 hPa | - | - | 0 W/m² | - |
* Rain since midnight (hover to see other rain measurements)
** Current wind speed in m/s (hover to see current wind gust speed)